Time;durP1;ratioP1;P1;durP2;ratioP2;P2;SDS_P1;SDS_P2;PMS_P1;PMS_P2;Temp;Humidity;BMP_temperature;BMP_pressure;BME280_temperature;BME280_humidity;BME280_pressure;Samples;Min_cycle;Max_cycle;Signal;HPM_P1;HPM_P2
2024/03/22 00:00:28;;;;;;;11.70;10.57;;;11.50;99.90;;;;;;5034842;28;20236;-76
2024/03/22 00:02:59;;;;;;;14.65;13.25;;;11.50;99.90;;;;;;5034208;28;20659;-77
2024/03/22 00:05:27;;;;;;;12.95;11.65;;;11.50;99.90;;;;;;5017053;28;20308;-76
2024/03/22 00:07:56;;;;;;;13.23;11.88;;;11.50;99.90;;;;;;5033004;28;20228;-76
2024/03/22 00:10:22;;;;;;;12.82;11.43;;;11.40;99.90;;;;;;5034455;28;20683;-76
2024/03/22 00:13:02;;;;;;;12.70;11.40;;;11.40;99.90;;;;;;5023892;28;20233;-76
2024/03/22 00:15:30;;;;;;;12.77;11.48;;;11.40;99.90;;;;;;5027407;28;20468;-76
2024/03/22 00:17:57;;;;;;;14.25;12.93;;;11.40;99.90;;;;;;5005014;28;20217;-77
2024/03/22 00:20:23;;;;;;;13.93;12.43;;;11.40;99.90;;;;;;5014805;28;20226;-76
2024/03/22 00:22:52;;;;;;;13.90;12.32;;;11.50;99.90;;;;;;5003200;28;20230;-76
2024/03/22 00:25:17;;;;;;;15.18;13.00;;;11.50;99.90;;;;;;5013374;28;20226;-77
2024/03/22 00:27:44;;;;;;;12.73;11.60;;;11.50;99.90;;;;;;5013145;28;20233;-77
2024/03/22 00:30:19;;;;;;;13.73;12.40;;;11.50;99.90;;;;;;5013740;28;20560;-76
2024/03/22 00:32:47;;;;;;;15.52;13.48;;;11.40;99.90;;;;;;5011944;28;20229;-77
2024/03/22 00:35:15;;;;;;;20.30;18.15;;;11.40;99.90;;;;;;5012228;28;20218;-76
2024/03/22 00:38:13;;;;;;;24.27;21.92;;;11.40;99.90;;;;;;5013429;28;20702;-76
2024/03/22 00:40:44;;;;;;;23.33;19.60;;;11.40;99.90;;;;;;5002753;28;20313;-77
2024/03/22 00:43:11;;;;;;;17.25;15.38;;;11.40;99.90;;;;;;5012541;28;20218;-76
2024/03/22 00:45:38;;;;;;;16.80;15.07;;;11.40;99.90;;;;;;5000411;28;20225;-77
2024/03/22 00:48:06;;;;;;;16.58;14.75;;;11.40;99.90;;;;;;5020780;28;20232;-77
2024/03/22 00:50:32;;;;;;;15.18;13.57;;;11.40;99.90;;;;;;5033104;28;20229;-76
2024/03/22 00:52:59;;;;;;;18.07;14.90;;;11.40;99.90;;;;;;5032172;28;20316;-77
2024/03/22 00:55:28;;;;;;;17.73;15.93;;;11.40;99.90;;;;;;5033161;28;20543;-76
2024/03/22 00:57:55;;;;;;;15.63;14.02;;;11.40;99.90;;;;;;5023538;28;20221;-76
2024/03/22 01:00:21;;;;;;;15.30;13.70;;;11.40;99.90;;;;;;5013545;28;20723;-77
2024/03/22 01:02:51;;;;;;;16.38;13.93;;;11.40;99.90;;;;;;5002267;28;20636;-77
2024/03/22 01:05:18;;;;;;;14.90;13.40;;;11.40;99.90;;;;;;5032673;28;20667;-77
2024/03/22 01:07:45;;;;;;;13.48;12.10;;;11.30;99.90;;;;;;5032575;28;20252;-77
2024/03/22 01:10:17;;;;;;;15.82;14.25;;;11.30;99.90;;;;;;5033471;28;20329;-77
2024/03/22 01:12:45;;;;;;;15.15;13.55;;;11.30;99.90;;;;;;5032971;28;20255;-77
2024/03/22 01:15:11;;;;;;;15.05;13.60;;;11.30;99.90;;;;;;5033305;28;20224;-76
2024/03/22 01:17:38;;;;;;;15.60;13.70;;;11.30;99.90;;;;;;5033025;28;20565;-76
2024/03/22 01:20:08;;;;;;;17.55;15.63;;;11.30;99.90;;;;;;5032799;28;20484;-76
2024/03/22 01:22:37;;;;;;;20.13;18.10;;;11.30;99.90;;;;;;5032702;28;20740;-77
2024/03/22 01:25:07;;;;;;;17.17;14.55;;;11.30;99.90;;;;;;5032889;28;20225;-77
2024/03/22 01:27:34;;;;;;;18.67;14.88;;;11.30;99.90;;;;;;5032603;28;20256;-77
2024/03/22 01:30:01;;;;;;;17.17;15.38;;;11.30;99.90;;;;;;5032706;28;20237;-77
2024/03/22 01:32:35;;;;;;;16.50;14.75;;;11.30;99.90;;;;;;5033220;28;20566;-77
2024/03/22 01:35:07;;;;;;;16.65;14.90;;;11.30;99.90;;;;;;5032448;28;20263;-77
2024/03/22 01:37:41;;;;;;;15.95;14.30;;;11.30;99.90;;;;;;5032104;28;20225;-77
2024/03/22 01:40:09;;;;;;;19.17;17.08;;;11.30;99.90;;;;;;5031572;28;20220;-77
2024/03/22 01:42:36;;;;;;;18.60;16.08;;;11.30;99.90;;;;;;5030416;28;20312;-77
2024/03/22 01:45:03;;;;;;;17.20;14.52;;;11.30;99.90;;;;;;5024191;28;20226;-76
2024/03/22 01:47:34;;;;;;;20.40;16.90;;;11.30;99.90;;;;;;5022733;28;20552;-77
2024/03/22 01:50:03;;;;;;;18.02;15.70;;;11.30;99.90;;;;;;5031673;28;20225;-77
2024/03/22 01:52:35;;;;;;;16.77;15.07;;;11.30;99.90;;;;;;5032930;28;20294;-77
2024/03/22 01:55:06;;;;;;;16.23;13.88;;;11.30;99.90;;;;;;5032221;28;20221;-77
2024/03/22 01:57:36;;;;;;;19.38;14.65;;;11.30;99.90;;;;;;5036748;28;20255;-76
2024/03/22 02:00:03;;;;;;;17.55;14.75;;;11.30;99.90;;;;;;5036231;28;20228;-77
2024/03/22 02:02:32;;;;;;;16.02;14.23;;;11.30;99.90;;;;;;5036592;28;20232;-77
2024/03/22 02:04:58;;;;;;;15.30;13.70;;;11.30;99.90;;;;;;5035715;28;20243;-77
2024/03/22 02:07:26;;;;;;;18.77;15.03;;;11.30;99.90;;;;;;5036778;28;20228;-76
2024/03/22 02:09:51;;;;;;;20.88;18.65;;;11.40;99.90;;;;;;5035835;28;20533;-77
2024/03/22 02:12:20;;;;;;;18.53;16.10;;;11.40;99.90;;;;;;5036986;28;20221;-76
2024/03/22 02:14:46;;;;;;;21.08;18.35;;;11.50;99.90;;;;;;5024873;28;20962;-76
2024/03/22 02:17:13;;;;;;;16.00;14.23;;;11.50;99.90;;;;;;5036236;28;20229;-77
2024/03/22 02:19:39;;;;;;;18.65;14.10;;;11.60;99.90;;;;;;5036880;28;20225;-77
2024/03/22 02:22:06;;;;;;;16.60;13.35;;;11.60;99.90;;;;;;5026106;28;20308;-76
2024/03/22 02:24:35;;;;;;;13.70;11.75;;;11.70;99.90;;;;;;5036532;28;20611;-77
2024/03/22 02:27:02;;;;;;;19.35;14.10;;;11.70;99.90;;;;;;5035299;28;20272;-76
2024/03/22 02:29:28;;;;;;;15.10;13.52;;;11.70;99.90;;;;;;5026848;28;20221;-77
2024/03/22 02:31:58;;;;;;;15.27;13.67;;;11.70;99.90;;;;;;5025788;28;20228;-77
2024/03/22 02:34:24;;;;;;;16.77;13.32;;;11.70;99.90;;;;;;5035425;28;20472;-76
2024/03/22 02:36:51;;;;;;;14.35;11.77;;;11.80;99.90;;;;;;5036142;28;20299;-78
2024/03/22 02:39:20;;;;;;;14.98;11.55;;;11.80;99.90;;;;;;5035036;28;20253;-77
2024/03/22 02:41:49;;;;;;;14.90;13.32;;;11.80;99.90;;;;;;5035828;28;20217;-78
2024/03/22 02:44:17;;;;;;;14.85;12.70;;;11.90;99.90;;;;;;5027150;28;20248;-77
2024/03/22 02:46:44;;;;;;;18.45;13.88;;;11.90;99.90;;;;;;5027512;28;20225;-77
2024/03/22 02:49:10;;;;;;;15.15;12.38;;;12.00;99.90;;;;;;5035946;28;20260;-77
2024/03/22 02:51:40;;;;;;;16.37;13.57;;;11.90;99.90;;;;;;5035633;28;20589;-77
2024/03/22 02:54:07;;;;;;;15.25;12.63;;;11.90;99.90;;;;;;5035150;28;20563;-77
2024/03/22 02:56:33;;;;;;;13.77;11.82;;;11.80;99.90;;;;;;5026518;28;20236;-77
2024/03/22 02:59:01;;;;;;;14.88;13.02;;;11.80;99.90;;;;;;5035981;28;20245;-77
2024/03/22 03:01:34;;;;;;;17.80;13.13;;;11.80;99.90;;;;;;5035321;28;20576;-76
2024/03/22 03:04:05;;;;;;;14.90;13.27;;;11.70;99.90;;;;;;5035345;28;20753;-77
2024/03/22 03:06:32;;;;;;;20.40;13.38;;;11.70;99.90;;;;;;5024431;28;20243;-77
2024/03/22 03:09:00;;;;;;;15.90;12.82;;;11.70;99.90;;;;;;5034853;28;20301;-77
2024/03/22 03:11:27;;;;;;;16.85;13.45;;;11.70;99.90;;;;;;5034767;28;20276;-77
2024/03/22 03:13:52;;;;;;;14.95;13.45;;;11.70;99.90;;;;;;5035764;28;20229;-77
2024/03/22 03:16:21;;;;;;;14.70;13.07;;;11.70;99.90;;;;;;5035147;28;20754;-77
2024/03/22 03:18:49;;;;;;;16.25;13.70;;;11.70;99.90;;;;;;5035407;28;20543;-76
2024/03/22 03:21:16;;;;;;;14.45;12.60;;;11.70;99.90;;;;;;5034585;28;20222;-76
2024/03/22 03:23:42;;;;;;;19.40;15.45;;;11.70;99.90;;;;;;5035201;28;20232;-76
2024/03/22 03:26:12;;;;;;;15.47;13.20;;;11.70;99.90;;;;;;5035268;28;20214;-76
2024/03/22 03:28:38;;;;;;;16.15;12.90;;;11.60;99.90;;;;;;5024429;28;20563;-76
2024/03/22 03:31:06;;;;;;;15.57;12.10;;;11.60;99.90;;;;;;5035145;28;20308;-77
2024/03/22 03:33:33;;;;;;;15.98;13.55;;;11.50;99.90;;;;;;5034456;28;20508;-77
2024/03/22 03:36:00;;;;;;;14.40;12.93;;;11.50;99.90;;;;;;5034777;28;20225;-77
2024/03/22 03:38:29;;;;;;;14.10;11.60;;;11.50;99.90;;;;;;5034254;28;20235;-77
2024/03/22 03:40:56;;;;;;;16.23;13.40;;;11.50;99.90;;;;;;5035220;28;20225;-76
2024/03/22 03:43:23;;;;;;;16.52;12.48;;;11.50;99.90;;;;;;5034964;28;20290;-77
2024/03/22 03:45:51;;;;;;;13.88;12.32;;;11.60;99.90;;;;;;5034811;28;20694;-77
2024/03/22 03:48:17;;;;;;;15.02;12.27;;;11.60;99.90;;;;;;5034227;28;20233;-76
2024/03/22 03:50:54;;;;;;;14.45;11.63;;;11.60;99.90;;;;;;5034121;28;20560;-77
2024/03/22 03:53:20;;;;;;;14.20;12.43;;;11.60;99.90;;;;;;5034792;28;20237;-77
2024/03/22 03:55:47;;;;;;;17.63;12.93;;;11.60;99.90;;;;;;5024405;28;20287;-77
2024/03/22 03:58:13;;;;;;;14.65;12.02;;;11.70;99.90;;;;;;5034244;28;20227;-76
2024/03/22 04:00:40;;;;;;;16.70;12.47;;;11.70;99.90;;;;;;5034330;28;20568;-76
2024/03/22 04:03:06;;;;;;;17.80;12.38;;;11.70;99.90;;;;;;5034196;28;20534;-77
2024/03/22 04:05:34;;;;;;;15.40;11.48;;;11.70;99.90;;;;;;5025213;28;20248;-77
2024/03/22 04:08:01;;;;;;;16.25;11.80;;;11.70;99.90;;;;;;5034495;28;20228;-76
2024/03/22 04:10:28;;;;;;;15.77;12.23;;;11.70;99.90;;;;;;5025976;28;20257;-76
2024/03/22 04:12:58;;;;;;;15.52;11.50;;;11.70;99.90;;;;;;5024626;28;20600;-77
2024/03/22 04:15:28;;;;;;;16.23;12.80;;;11.70;99.90;;;;;;5034594;28;20240;-77
2024/03/22 04:18:00;;;;;;;14.93;13.23;;;11.70;99.90;;;;;;5033357;28;20591;-77
2024/03/22 04:20:27;;;;;;;16.45;12.93;;;11.70;99.90;;;;;;5033875;28;20236;-77
2024/03/22 04:22:57;;;;;;;18.08;13.00;;;11.70;99.90;;;;;;5010962;28;20225;-76
2024/03/22 04:25:32;;;;;;;15.55;12.07;;;11.70;99.90;;;;;;5024085;28;20549;-77
2024/03/22 04:27:58;;;;;;;17.98;12.88;;;11.60;99.90;;;;;;5032751;28;20229;-77
2024/03/22 04:30:29;;;;;;;14.80;12.80;;;11.70;99.90;;;;;;5033958;28;20308;-77
2024/03/22 04:32:55;;;;;;;15.20;11.70;;;11.70;99.90;;;;;;5034013;28;20476;-77
2024/03/22 04:35:25;;;;;;;19.07;12.40;;;11.70;99.90;;;;;;5033947;28;20238;-77
2024/03/22 04:37:56;;;;;;;15.05;12.30;;;11.60;99.90;;;;;;5023150;28;20566;-77
2024/03/22 04:40:25;;;;;;;14.15;11.23;;;11.60;99.90;;;;;;5033234;28;20229;-77
2024/03/22 04:42:53;;;;;;;15.27;11.95;;;11.60;99.90;;;;;;5032797;28;20233;-77
2024/03/22 04:45:22;;;;;;;16.42;11.80;;;11.70;99.90;;;;;;5023907;28;20236;-76
2024/03/22 04:47:49;;;;;;;13.02;11.52;;;11.60;99.90;;;;;;5021277;28;20236;-77
2024/03/22 04:50:20;;;;;;;14.38;11.18;;;11.60;99.90;;;;;;5033621;28;20232;-76
2024/03/22 04:52:47;;;;;;;14.05;11.50;;;11.70;99.90;;;;;;5033561;28;20259;-76
2024/03/22 04:55:16;;;;;;;13.73;11.55;;;11.70;99.90;;;;;;5033440;28;20325;-77
2024/03/22 04:57:43;;;;;;;17.23;12.82;;;11.60;99.90;;;;;;5032718;28;20564;-77
2024/03/22 05:00:14;;;;;;;15.32;11.32;;;11.60;99.90;;;;;;5033568;28;20221;-76
2024/03/22 05:02:44;;;;;;;13.70;11.85;;;11.70;99.90;;;;;;5033741;28;20225;-77
2024/03/22 05:05:12;;;;;;;13.07;10.48;;;11.70;99.90;;;;;;5023169;28;20237;-77
2024/03/22 05:07:39;;;;;;;14.82;11.63;;;11.70;99.90;;;;;;5032572;28;20244;-77
2024/03/22 05:10:06;;;;;;;12.20;10.23;;;11.80;99.90;;;;;;5032202;28;20316;-77
2024/03/22 05:12:33;;;;;;;12.48;11.15;;;11.80;99.90;;;;;;5033352;28;20308;-77
2024/03/22 05:14:59;;;;;;;14.30;11.95;;;11.80;99.90;;;;;;5032348;28;20247;-77
2024/03/22 05:17:29;;;;;;;11.80;10.20;;;11.80;99.90;;;;;;5033602;28;20252;-77
2024/03/22 05:19:56;;;;;;;14.82;11.00;;;11.80;99.90;;;;;;5032608;28;20236;-76
2024/03/22 05:22:26;;;;;;;15.95;11.90;;;11.80;99.90;;;;;;5033009;28;20229;-77
2024/03/22 05:24:53;;;;;;;11.68;10.40;;;11.80;99.90;;;;;;5032639;28;20656;-77
2024/03/22 05:27:20;;;;;;;15.48;12.50;;;11.80;99.90;;;;;;5033003;28;20245;-76
2024/03/22 05:29:47;;;;;;;14.52;10.77;;;11.80;99.90;;;;;;5033164;28;20225;-77
2024/03/22 05:32:16;;;;;;;12.10;10.90;;;11.70;99.90;;;;;;5011170;28;21373;-78
2024/03/22 05:34:44;;;;;;;12.68;10.77;;;11.70;99.90;;;;;;5032385;28;20233;-77
2024/03/22 05:37:11;;;;;;;14.82;11.77;;;11.80;99.90;;;;;;5032208;28;20221;-77
2024/03/22 05:39:45;;;;;;;12.25;10.95;;;11.80;99.90;;;;;;5032712;28;20251;-77
2024/03/22 05:42:14;;;;;;;14.15;11.35;;;11.80;99.90;;;;;;5031987;28;20596;-77
2024/03/22 05:44:40;;;;;;;15.68;12.18;;;11.80;99.90;;;;;;5033100;28;20235;-77
2024/03/22 05:47:07;;;;;;;15.15;11.85;;;11.80;99.90;;;;;;5032504;28;20689;-77
2024/03/22 05:49:33;;;;;;;16.17;12.35;;;11.80;99.90;;;;;;5021974;28;20228;-77
2024/03/22 05:52:12;;;;;;;12.50;11.00;;;11.80;99.90;;;;;;5024379;28;20218;-77
2024/03/22 05:54:38;;;;;;;18.52;13.40;;;11.90;99.90;;;;;;5022638;28;20490;-76
2024/03/22 05:57:06;;;;;;;22.65;16.33;;;11.90;99.90;;;;;;5022277;28;20542;-77
2024/03/22 05:59:45;;;;;;;21.13;16.50;;;12.00;99.90;;;;;;5031573;28;20225;-77
2024/03/22 06:02:13;;;;;;;14.70;13.07;;;12.00;99.90;;;;;;5017656;28;20271;-77
2024/03/22 06:04:39;;;;;;;21.92;14.50;;;12.00;99.90;;;;;;5032903;28;20237;-76
2024/03/22 06:07:07;;;;;;;19.53;14.43;;;12.00;99.90;;;;;;5031602;28;20549;-76
2024/03/22 06:09:37;;;;;;;17.23;14.35;;;12.00;99.90;;;;;;5031516;28;20969;-76
2024/03/22 06:12:05;;;;;;;19.52;16.17;;;12.00;99.90;;;;;;5032504;28;20221;-76
2024/03/22 06:14:32;;;;;;;19.88;15.18;;;12.00;99.90;;;;;;5032324;28;20244;-76
2024/03/22 06:17:17;;;;;;;15.98;13.05;;;12.00;99.90;;;;;;5032409;28;20667;-76
2024/03/22 06:19:43;;;;;;;18.83;15.27;;;12.00;99.90;;;;;;5026944;28;20233;-76
2024/03/22 06:22:12;;;;;;;14.90;12.52;;;12.00;99.90;;;;;;5022863;28;20232;-76
2024/03/22 06:24:38;;;;;;;14.98;12.40;;;12.00;99.90;;;;;;5031946;28;20237;-76
2024/03/22 06:27:07;;;;;;;16.40;12.82;;;12.10;99.90;;;;;;5011757;28;20602;-76
2024/03/22 06:29:56;;;;;;;;;;;;;;;;;;;;;
2024/03/22 06:32:27;;;;;;;14.63;12.30;;;12.10;99.90;;;;;;5021438;28;20646;-76
2024/03/22 06:34:56;;;;;;;15.82;12.00;;;12.00;99.90;;;;;;5032273;28;20519;-76
2024/03/22 06:37:24;;;;;;;17.35;12.98;;;12.00;99.90;;;;;;5031858;28;20221;-75
2024/03/22 06:39:50;;;;;;;14.75;11.73;;;12.00;99.90;;;;;;5032457;28;20678;-76
2024/03/22 06:42:17;;;;;;;13.15;11.18;;;12.10;99.90;;;;;;5032157;28;20245;-75
2024/03/22 06:44:47;;;;;;;14.40;12.48;;;12.10;99.90;;;;;;5025298;28;20233;-77
2024/03/22 06:47:16;;;;;;;16.48;12.65;;;12.10;99.90;;;;;;5033979;28;20229;-77
2024/03/22 06:49:42;;;;;;;15.98;13.80;;;12.10;99.90;;;;;;5023905;28;20225;-75
2024/03/22 06:52:21;;;;;;;17.53;13.73;;;12.10;99.90;;;;;;5034910;28;20229;-78
2024/03/22 06:54:50;;;;;;;15.35;12.73;;;12.10;99.90;;;;;;5035641;28;20969;-77
2024/03/22 06:57:18;;;;;;;15.95;14.05;;;12.20;99.90;;;;;;5035503;28;20232;-77
2024/03/22 06:59:52;;;;;;;16.05;13.57;;;12.20;99.90;;;;;;5023790;28;20233;-75
2024/03/22 07:02:20;;;;;;;20.52;13.80;;;12.20;99.90;;;;;;5035587;28;20220;-75
2024/03/22 07:04:48;;;;;;;19.65;13.75;;;12.20;99.90;;;;;;5034931;28;20279;-78
2024/03/22 07:07:23;;;;;;;15.10;13.10;;;12.20;99.90;;;;;;5025179;28;20679;-77
2024/03/22 07:09:50;;;;;;;19.83;13.80;;;12.30;99.90;;;;;;5033993;28;20256;-78
2024/03/22 07:12:17;;;;;;;23.20;19.27;;;12.30;99.90;;;;;;5035794;28;20536;-77
2024/03/22 07:14:43;;;;;;;20.73;17.23;;;12.40;99.90;;;;;;5034898;28;20570;-77
2024/03/22 07:17:13;;;;;;;21.27;17.30;;;12.40;99.90;;;;;;5024276;28;20538;-77
2024/03/22 07:19:39;;;;;;;22.40;16.95;;;12.40;99.90;;;;;;5035453;28;20329;-77
2024/03/22 07:22:11;;;;;;;22.30;17.07;;;12.50;99.90;;;;;;5023571;28;20249;-77
2024/03/22 07:24:38;;;;;;;20.90;16.42;;;12.40;99.90;;;;;;5035103;28;21039;-77
2024/03/22 07:27:07;;;;;;;16.80;14.45;;;12.40;99.90;;;;;;5025014;28;20562;-78
2024/03/22 07:29:32;;;;;;;16.98;14.07;;;12.50;99.90;;;;;;5034249;28;20639;-77
2024/03/22 07:32:05;;;;;;;18.47;15.53;;;12.50;99.90;;;;;;5023352;28;20236;-77
2024/03/22 07:34:42;;;;;;;20.42;14.70;;;12.50;99.90;;;;;;5035075;28;20472;-77
2024/03/22 07:40:25;;;;;;;19.08;16.20;;;12.50;99.90;;;;;;5002680;28;20301;-77
2024/03/22 07:42:53;;;;;;;21.10;14.93;;;12.60;99.90;;;;;;5035088;28;20387;-78
2024/03/22 07:45:24;;;;;;;18.77;15.27;;;12.60;99.90;;;;;;5035153;28;20578;-78
2024/03/22 07:47:56;;;;;;;16.35;14.23;;;12.70;99.90;;;;;;5025828;28;20221;-78
2024/03/22 07:50:23;;;;;;;18.33;14.38;;;12.60;99.90;;;;;;5025288;28;20275;-78
2024/03/22 07:52:49;;;;;;;18.15;16.15;;;12.70;99.90;;;;;;5034120;28;20702;-78
2024/03/22 07:55:16;;;;;;;22.30;17.60;;;12.60;99.90;;;;;;5034160;28;20217;-78
2024/03/22 07:57:42;;;;;;;18.42;14.90;;;12.60;99.90;;;;;;5033500;28;20490;-77
2024/03/22 08:00:11;;;;;;;19.37;15.50;;;12.70;99.90;;;;;;5034838;28;20217;-77
2024/03/22 08:02:37;;;;;;;20.27;15.40;;;12.60;99.90;;;;;;5023684;28;20475;-77
2024/03/22 08:05:05;;;;;;;20.30;16.30;;;12.70;99.90;;;;;;5024841;28;20645;-78
2024/03/22 08:07:40;;;;;;;17.70;15.70;;;12.70;99.90;;;;;;5024880;28;20510;-78
2024/03/22 08:10:15;;;;;;;22.48;17.40;;;12.70;99.90;;;;;;5025573;28;20221;-78
2024/03/22 08:12:41;;;;;;;21.83;16.20;;;12.70;99.90;;;;;;5034611;28;20231;-78
2024/03/22 08:15:10;;;;;;;17.80;15.53;;;12.80;99.90;;;;;;5022652;28;20237;-77
2024/03/22 08:17:37;;;;;;;21.17;17.23;;;12.80;99.90;;;;;;5034116;28;20471;-77
2024/03/22 08:20:04;;;;;;;19.63;17.20;;;12.80;99.90;;;;;;5022465;28;20221;-78
2024/03/22 08:22:31;;;;;;;20.90;18.67;;;12.90;99.90;;;;;;5034254;28;20460;-78
2024/03/22 08:25:04;;;;;;;24.10;16.75;;;12.90;99.90;;;;;;5025744;28;20755;-78
2024/03/22 08:27:41;;;;;;;21.17;16.02;;;12.90;99.90;;;;;;5033627;28;20226;-77
2024/03/22 08:30:11;;;;;;;22.27;16.08;;;12.90;99.90;;;;;;5033691;28;20217;-77
2024/03/22 08:32:37;;;;;;;21.55;17.52;;;13.00;99.90;;;;;;5024430;28;20222;-76
2024/03/22 08:35:05;;;;;;;21.67;15.90;;;13.00;99.90;;;;;;5032687;28;20228;-76
2024/03/22 08:37:38;;;;;;;20.38;16.25;;;13.00;99.90;;;;;;5022756;28;20464;-75
2024/03/22 08:40:05;;;;;;;19.40;15.43;;;13.00;99.90;;;;;;5033049;28;20232;-76
2024/03/22 08:42:32;;;;;;;21.27;16.60;;;13.10;99.90;;;;;;5023463;28;20229;-75
2024/03/22 08:44:59;;;;;;;19.40;15.98;;;13.20;99.90;;;;;;5031869;28;20221;-76
2024/03/22 08:47:26;;;;;;;21.07;17.13;;;13.20;99.90;;;;;;5023407;28;20312;-75
2024/03/22 08:50:02;;;;;;;20.50;16.75;;;13.20;99.90;;;;;;5033684;28;20647;-75
2024/03/22 08:52:28;;;;;;;21.48;17.90;;;13.30;99.90;;;;;;5033637;28;20335;-76
2024/03/22 08:55:07;;;;;;;17.40;15.33;;;13.30;99.90;;;;;;5025405;28;20267;-76
2024/03/22 08:57:33;;;;;;;18.77;15.33;;;13.40;99.90;;;;;;5023370;28;20463;-76
2024/03/22 09:00:01;;;;;;;22.50;16.90;;;13.50;99.90;;;;;;5013892;28;20551;-76
2024/03/22 09:02:29;;;;;;;20.87;16.10;;;13.50;99.90;;;;;;5032781;28;20961;-76
2024/03/22 09:05:16;;;;;;;20.40;16.70;;;13.50;99.90;;;;;;5032585;28;20459;-76
2024/03/22 09:07:42;;;;;;;20.13;16.57;;;13.60;99.90;;;;;;5033105;28;20472;-76
2024/03/22 09:10:15;;;;;;;19.63;17.20;;;13.70;99.90;;;;;;5034092;28;20479;-76
2024/03/22 09:12:41;;;;;;;21.63;16.70;;;13.80;99.90;;;;;;5036299;28;20491;-76
2024/03/22 09:15:09;;;;;;;20.50;17.30;;;13.70;99.90;;;;;;5033485;28;20507;-76
2024/03/22 09:17:52;;;;;;;19.37;16.10;;;13.80;99.90;;;;;;5032793;28;20465;-76
2024/03/22 09:20:19;;;;;;;21.87;16.80;;;13.80;99.90;;;;;;5033392;28;21052;-77
2024/03/22 09:22:53;;;;;;;17.90;16.07;;;13.80;99.90;;;;;;5032123;28;20529;-76
2024/03/22 09:25:20;;;;;;;20.30;17.10;;;13.90;99.90;;;;;;5033041;28;20486;-77
2024/03/22 09:27:46;;;;;;;29.60;20.53;;;13.90;99.90;;;;;;5032683;28;20453;-76
2024/03/22 09:30:14;;;;;;;22.43;17.27;;;14.00;99.90;;;;;;5021580;28;20468;-76
2024/03/22 09:32:45;;;;;;;23.10;17.57;;;14.00;99.90;;;;;;5032205;28;20483;-76
2024/03/22 09:35:17;;;;;;;18.00;14.60;;;14.00;99.90;;;;;;5033379;28;21047;-76
2024/03/22 09:37:48;;;;;;;22.33;17.20;;;14.10;99.90;;;;;;5033003;28;20471;-76
2024/03/22 09:40:15;;;;;;;20.90;17.10;;;14.10;99.90;;;;;;5022947;28;20479;-76
2024/03/22 09:42:42;;;;;;;20.70;18.33;;;14.10;99.90;;;;;;5032035;28;20468;-77
2024/03/22 09:45:18;;;;;;;21.50;17.60;;;14.10;99.90;;;;;;5022900;28;20476;-77
2024/03/22 09:47:50;;;;;;;20.43;15.33;;;14.20;99.90;;;;;;5032021;28;20979;-77
2024/03/22 09:50:17;;;;;;;21.53;18.37;;;14.20;99.90;;;;;;5033228;28;20471;-77
2024/03/22 09:52:45;;;;;;;19.97;14.80;;;14.30;99.90;;;;;;5032516;28;20487;-76
2024/03/22 09:55:23;;;;;;;18.47;16.17;;;14.30;99.90;;;;;;5033129;28;20491;-76
2024/03/22 09:57:50;;;;;;;19.83;16.93;;;14.40;99.90;;;;;;5032697;28;20463;-77
2024/03/22 10:00:31;;;;;;;20.57;16.87;;;14.50;99.90;;;;;;5033128;28;20551;-76
2024/03/22 10:02:58;;;;;;;25.13;18.50;;;14.60;99.90;;;;;;5032235;28;20467;-77
2024/03/22 10:05:26;;;;;;;18.07;15.43;;;14.60;99.90;;;;;;5031285;28;20759;-76
2024/03/22 10:08:01;;;;;;;20.03;17.57;;;14.70;99.90;;;;;;5030585;28;20490;-77
2024/03/22 10:10:28;;;;;;;23.40;17.60;;;14.70;99.90;;;;;;5033025;28;20459;-77
2024/03/22 10:12:58;;;;;;;20.60;17.27;;;14.70;99.90;;;;;;5032547;28;20478;-76
2024/03/22 10:15:27;;;;;;;20.40;17.43;;;14.80;99.90;;;;;;5032588;28;20537;-77
2024/03/22 10:17:56;;;;;;;20.67;17.10;;;14.90;99.90;;;;;;5025522;28;20472;-77
2024/03/22 10:20:23;;;;;;;22.73;18.30;;;14.90;99.90;;;;;;5036108;28;20795;-77
2024/03/22 10:23:25;;;;;;;19.97;16.70;;;14.90;99.90;;;;;;5014841;28;20483;-76
2024/03/22 10:25:52;;;;;;;20.73;15.70;;;14.90;99.90;;;;;;5034832;28;20537;-77
2024/03/22 10:28:24;;;;;;;22.20;18.00;;;14.90;99.90;;;;;;5036393;28;20483;-77
2024/03/22 10:30:51;;;;;;;25.00;19.80;;;15.00;99.90;;;;;;5008857;28;20468;-77
2024/03/22 10:33:22;;;;;;;17.80;15.70;;;15.00;99.90;;;;;;5035954;28;20511;-77
2024/03/22 10:35:56;;;;;;;18.83;16.40;;;15.10;99.90;;;;;;5017552;28;20468;-76
2024/03/22 10:38:30;;;;;;;17.90;16.00;;;15.20;99.90;;;;;;5036182;28;20585;-76
2024/03/22 10:40:57;;;;;;;31.60;25.30;;;15.20;99.90;;;;;;5036467;28;20482;-76
2024/03/22 10:43:24;;;;;;;18.20;16.23;;;15.20;99.90;;;;;;5035916;28;20468;-77
2024/03/22 10:45:57;;;;;;;19.93;17.00;;;15.30;99.90;;;;;;5025206;28;20482;-76
2024/03/22 10:48:26;;;;;;;18.90;15.23;;;15.30;99.90;;;;;;5035657;28;20472;-75
2024/03/22 10:50:56;;;;;;;25.13;19.80;;;15.40;99.90;;;;;;5018984;28;20475;-77
2024/03/22 10:53:27;;;;;;;24.20;19.07;;;15.50;99.90;;;;;;5035931;28;20541;-77
2024/03/22 10:55:54;;;;;;;24.53;18.93;;;15.60;99.90;;;;;;5034782;28;20467;-76
2024/03/22 10:58:24;;;;;;;18.17;15.90;;;15.80;99.90;;;;;;5035297;28;20966;-75
2024/03/22 11:00:52;;;;;;;21.33;17.60;;;15.90;99.90;;;;;;5035027;28;20478;-76
2024/03/22 11:03:21;;;;;;;20.37;16.27;;;15.90;99.90;;;;;;5035750;28;20468;-76
2024/03/22 11:05:48;;;;;;;21.13;18.93;;;16.00;99.90;;;;;;5024839;28;20468;-76
2024/03/22 11:08:28;;;;;;;18.13;16.20;;;16.00;99.90;;;;;;5035697;28;20484;-76
2024/03/22 11:11:12;;;;;;;17.67;15.10;;;16.00;99.90;;;;;;5034744;28;20472;-76
2024/03/22 11:13:41;;;;;;;15.77;13.50;;;16.10;99.90;;;;;;5024863;28;20475;-77
2024/03/22 11:16:11;;;;;;;20.00;16.00;;;16.20;99.90;;;;;;5023816;28;20480;-77
2024/03/22 11:18:41;;;;;;;16.80;14.27;;;16.20;99.90;;;;;;5034305;28;20802;-76
2024/03/22 11:21:13;;;;;;;32.60;26.23;;;16.20;99.90;;;;;;5034995;28;20496;-77
2024/03/22 11:23:49;;;;;;;23.47;18.00;;;16.20;99.90;;;;;;5035027;28;20522;-77
2024/03/22 11:26:15;;;;;;;16.17;13.60;;;16.20;99.90;;;;;;5034346;28;20557;-76
2024/03/22 11:28:51;;;;;;;17.90;14.50;;;16.10;99.90;;;;;;5025935;28;20977;-77
2024/03/22 11:31:19;;;;;;;17.97;14.37;;;16.10;99.90;;;;;;5034819;28;21021;-76
2024/03/22 11:34:02;;;;;;;16.47;14.20;;;16.10;99.90;;;;;;5024845;28;20500;-76
2024/03/22 11:36:31;;;;;;;15.80;14.10;;;15.90;99.90;;;;;;5032207;28;20526;-77
2024/03/22 11:38:59;;;;;;;16.80;13.63;;;15.90;99.90;;;;;;5035006;28;20459;-76
2024/03/22 11:44:26;;;;;;;15.30;13.60;;;15.80;99.90;;;;;;5018343;28;20617;-77
2024/03/22 11:46:52;;;;;;;19.20;17.20;;;15.80;99.90;;;;;;5034528;28;20860;-77
2024/03/22 11:49:23;;;;;;;22.17;19.50;;;15.90;99.90;;;;;;5014751;28;20476;-77
2024/03/22 11:51:51;;;;;;;16.90;15.20;;;15.80;99.90;;;;;;5026549;28;20992;-78
2024/03/22 11:54:25;;;;;;;16.57;14.53;;;15.80;99.90;;;;;;5034383;28;20472;-78
2024/03/22 11:56:52;;;;;;;20.50;17.83;;;15.80;99.90;;;;;;5034643;28;20566;-78
2024/03/22 11:59:22;;;;;;;20.47;16.33;;;15.80;99.90;;;;;;5034214;28;20547;-77
2024/03/22 12:01:48;;;;;;;20.07;17.13;;;15.80;99.90;;;;;;5033692;28;20475;-78
2024/03/22 12:04:20;;;;;;;21.60;15.37;;;15.80;99.90;;;;;;5026351;28;20464;-76
2024/03/22 12:06:49;;;;;;;18.63;15.07;;;15.80;99.90;;;;;;5024068;28;20506;-77
2024/03/22 12:09:17;;;;;;;24.00;19.40;;;15.70;99.90;;;;;;5018970;28;20483;-76
2024/03/22 12:11:44;;;;;;;22.10;16.30;;;15.70;99.90;;;;;;5032836;28;20542;-76
2024/03/22 12:14:11;;;;;;;18.43;15.90;;;15.70;99.90;;;;;;5023074;28;20570;-77
2024/03/22 12:16:37;;;;;;;19.43;15.87;;;15.70;99.90;;;;;;5033372;28;20568;-77
2024/03/22 12:19:12;;;;;;;19.47;15.70;;;15.70;99.90;;;;;;5034472;28;20459;-77
2024/03/22 12:21:43;;;;;;;19.23;16.33;;;15.60;99.90;;;;;;5033259;28;20463;-77
2024/03/22 12:24:17;;;;;;;16.50;14.13;;;15.60;99.90;;;;;;5033865;28;20525;-77
2024/03/22 12:26:53;;;;;;;20.67;16.10;;;15.60;99.90;;;;;;5023545;28;20479;-77
2024/03/22 12:29:21;;;;;;;18.37;16.17;;;15.50;99.90;;;;;;5033189;28;20772;-77
2024/03/22 12:31:47;;;;;;;18.60;15.80;;;15.50;99.90;;;;;;5022787;28;20483;-77
2024/03/22 12:34:15;;;;;;;14.83;13.27;;;15.40;99.90;;;;;;5033954;28;20464;-77
2024/03/22 12:36:58;;;;;;;23.00;17.33;;;15.40;99.90;;;;;;5024870;28;20468;-77
2024/03/22 12:39:25;;;;;;;20.57;16.60;;;15.30;99.90;;;;;;5023745;28;20460;-77
2024/03/22 12:41:57;;;;;;;21.93;17.60;;;15.30;99.90;;;;;;5032759;28;20506;-79
2024/03/22 12:44:24;;;;;;;18.23;15.17;;;15.20;99.90;;;;;;5033500;28;20547;-77